San Andres del Rabanedo, Spain
Current Conditions -  °F | °C
As of 9:00 PM on Monday 20 Oct 2014 (Local Time) from LELN Reporting Station
Few Clouds Few Clouds  
Wind Chill: 61°   Ceiling: Unl
Heat Index: 61°   Visibility: 6mi
Dew Point: 50°   Wind: 5mph
Humidity: 68%   Direction: 300°WNW
Pressure: 30.27"   Gusts: NA
Location:  42.61°N, 5.62°W
Report Text: LELN 201900Z 30004KT 260V330 9999 FEW030 16/10 Q1025
Loading
Personal Weather Stations






























Interactive Weather Map
Tropical Storm Tracking
New forecast layout! Learn more

10-Day Weather Forecast

Advertisements
Track Severe Weather on mobile